Time;durP1;ratioP1;P1;durP2;ratioP2;P2;SDS_P1;SDS_P2;PMS_P1;PMS_P2;Temp;Humidity;BMP_temperature;BMP_pressure;BME280_temperature;BME280_humidity;BME280_pressure;Samples;Min_cycle;Max_cycle;Signal;HPM_P1;HPM_P2
2023/08/18 04:01:50;;;;;;;2.50;1.23;;;;;;;;;;5330321;23;21039;-73
2023/08/18 04:04:17;;;;;;;0.70;0.40;;;20.90;99.90;;;;;;4936555;29;20450;-71
2023/08/18 04:06:45;;;;;;;0.60;0.10;;;20.90;99.90;;;;;;4934041;29;20454;-73
2023/08/18 04:09:15;;;;;;;0.87;0.47;;;20.90;99.90;;;;;;4930728;29;20534;-72
2023/08/18 04:11:44;;;;;;;0.60;0.10;;;20.90;99.90;;;;;;4927779;29;20491;-71
2023/08/18 04:14:12;;;;;;;0.60;0.10;;;20.90;99.90;;;;;;4935503;29;20482;-72
2023/08/18 04:16:40;;;;;;;1.27;1.00;;;20.80;99.90;;;;;;4918827;29;21216;-72
2023/08/18 04:19:09;;;;;;;0.60;0.27;;;20.80;1.00;;;;;;4917242;29;20515;-72
2023/08/18 04:21:37;;;;;;;0.60;0.20;;;20.90;99.90;;;;;;4916953;29;21072;-71
2023/08/18 04:24:06;;;;;;;0.60;0.10;;;20.90;1.00;;;;;;4917736;29;20955;-72
2023/08/18 04:26:35;;;;;;;0.80;0.73;;;20.90;99.90;;;;;;4916943;29;20990;-71
2023/08/18 04:29:03;;;;;;;0.60;0.10;;;20.90;99.90;;;;;;4917097;29;20524;-71
2023/08/18 04:31:32;;;;;;;1.40;1.30;;;20.90;99.90;;;;;;4916585;29;21276;-71
2023/08/18 04:34:00;;;;;;;0.60;0.20;;;20.80;99.90;;;;;;4916705;29;20538;-71
2023/08/18 04:36:29;;;;;;;0.60;0.10;;;20.80;99.90;;;;;;4916356;29;20524;-71
2023/08/18 04:38:57;;;;;;;0.60;0.10;;;20.80;1.00;;;;;;4916591;29;20567;-70
2023/08/18 04:41:24;;;;;;;0.60;0.17;;;20.80;99.90;;;;;;4916710;29;20503;-70
2023/08/18 04:43:52;;;;;;;0.60;0.10;;;20.80;1.00;;;;;;4916304;29;20546;-72
2023/08/18 04:46:20;;;;;;;0.60;0.20;;;20.80;1.00;;;;;;4917415;29;20487;-72
2023/08/18 04:48:48;;;;;;;1.10;0.50;;;20.90;1.00;;;;;;4916331;29;20824;-72
2023/08/18 04:51:16;;;;;;;0.60;0.10;;;21.00;1.00;;;;;;4922939;29;20578;-73
2023/08/18 04:53:45;;;;;;;0.60;0.10;;;21.00;1.00;;;;;;4923624;29;20896;-74
2023/08/18 04:56:13;;;;;;;0.60;0.20;;;21.00;1.00;;;;;;4921134;29;20645;-72
2023/08/18 04:58:40;;;;;;;0.70;0.37;;;21.00;99.90;;;;;;4921296;29;20463;-72
2023/08/18 05:01:09;;;;;;;0.60;0.10;;;21.10;99.90;;;;;;4918946;29;20483;-72
2023/08/18 05:03:36;;;;;;;0.60;0.10;;;21.00;99.90;;;;;;4926407;29;20491;-71
2023/08/18 05:06:08;;;;;;;0.60;0.10;;;21.10;99.90;;;;;;4914525;29;20452;-72
2023/08/18 05:08:37;;;;;;;0.60;0.10;;;21.20;99.90;;;;;;4915656;29;20451;-72
2023/08/18 05:11:08;;;;;;;0.60;0.10;;;21.20;99.90;;;;;;4916752;29;20472;-71
2023/08/18 05:13:38;;;;;;;0.60;0.20;;;21.20;99.90;;;;;;4916958;29;20537;-73
2023/08/18 05:16:06;;;;;;;0.60;0.10;;;21.30;99.90;;;;;;4910452;29;20445;-71
2023/08/18 05:18:34;;;;;;;0.60;0.10;;;21.20;99.90;;;;;;4914901;29;20509;-72
2023/08/18 05:21:03;;;;;;;1.10;0.97;;;21.20;99.90;;;;;;4915964;29;20515;-74
2023/08/18 05:23:32;;;;;;;0.60;0.27;;;21.20;99.90;;;;;;4916078;29;20951;-71
2023/08/18 05:26:00;;;;;;;1.83;1.70;;;21.20;99.90;;;;;;4915240;29;20455;-73
2023/08/18 05:28:32;;;;;;;0.70;0.57;;;21.30;99.90;;;;;;4915317;29;20474;-72
2023/08/18 05:31:00;;;;;;;0.60;0.10;;;21.20;99.90;;;;;;4915337;29;20992;-71
2023/08/18 05:33:28;;;;;;;0.60;0.10;;;21.20;99.90;;;;;;4915202;29;20488;-72
2023/08/18 05:35:58;;;;;;;0.60;0.10;;;21.20;99.90;;;;;;4916121;29;20523;-71
2023/08/18 05:38:26;;;;;;;0.70;0.40;;;21.30;99.90;;;;;;4915797;29;20566;-72
2023/08/18 05:41:03;;;;;;;0.60;0.10;;;21.40;99.90;;;;;;4915938;29;20463;-71
2023/08/18 05:43:37;;;;;;;0.60;0.10;;;21.40;99.90;;;;;;4916072;29;20443;-70
2023/08/18 05:46:05;;;;;;;0.60;0.20;;;21.50;99.90;;;;;;4915728;29;20456;-72
2023/08/18 05:48:33;;;;;;;0.60;0.10;;;21.50;99.90;;;;;;4912752;29;20550;-72
2023/08/18 05:51:01;;;;;;;0.70;0.50;;;21.50;99.90;;;;;;4915994;29;20550;-71
2023/08/18 05:53:30;;;;;;;0.60;0.17;;;21.50;99.90;;;;;;4915883;29;20487;-72
2023/08/18 05:55:58;;;;;;;0.90;0.20;;;21.60;99.90;;;;;;4915721;29;20492;-74
2023/08/18 05:58:26;;;;;;;0.60;0.10;;;21.60;99.90;;;;;;4915639;29;20459;-74
2023/08/18 06:00:55;;;;;;;0.60;0.20;;;21.60;99.90;;;;;;4916726;29;20488;-74
2023/08/18 06:03:22;;;;;;;0.60;0.10;;;21.60;99.90;;;;;;4925737;29;20447;-72
2023/08/18 06:05:51;;;;;;;0.60;0.10;;;21.60;99.90;;;;;;4920987;29;20471;-71
2023/08/18 06:08:19;;;;;;;0.77;0.20;;;21.70;99.90;;;;;;4923371;29;20452;-71
2023/08/18 06:10:47;;;;;;;0.60;0.20;;;21.70;99.90;;;;;;4919913;29;20504;-73
2023/08/18 06:13:15;;;;;;;0.60;0.10;;;21.70;99.90;;;;;;4918065;29;20480;-72
2023/08/18 06:15:43;;;;;;;0.60;0.10;;;21.80;99.90;;;;;;4916390;29;20543;-73
2023/08/18 06:18:12;;;;;;;0.60;0.10;;;21.80;99.90;;;;;;4916343;29;20452;-71
2023/08/18 06:20:40;;;;;;;0.67;0.20;;;22.00;99.90;;;;;;4912964;29;20484;-72
2023/08/18 06:23:08;;;;;;;0.60;0.10;;;22.00;99.90;;;;;;4916204;29;20477;-74
2023/08/18 06:25:36;;;;;;;0.60;0.20;;;22.00;99.90;;;;;;4906126;29;20471;-73
2023/08/18 06:28:07;;;;;;;0.60;0.17;;;22.00;99.90;;;;;;4930488;29;20453;-74
2023/08/18 06:30:35;;;;;;;0.60;0.20;;;22.00;99.90;;;;;;4922608;29;20474;-72
2023/08/18 06:33:03;;;;;;;0.60;0.10;;;22.00;99.90;;;;;;4916761;29;20488;-72
2023/08/18 06:35:32;;;;;;;1.53;1.27;;;22.00;99.90;;;;;;4915681;29;20506;-72
2023/08/18 06:38:00;;;;;;;0.60;0.10;;;22.00;99.90;;;;;;4914166;29;21077;-72
2023/08/18 06:40:28;;;;;;;0.60;0.27;;;22.10;99.90;;;;;;4916113;29;20445;-69
2023/08/18 06:42:56;;;;;;;0.60;0.10;;;22.10;99.90;;;;;;4919205;29;20913;-75
2023/08/18 06:45:24;;;;;;;0.60;0.20;;;22.10;99.90;;;;;;4915473;29;20455;-76
2023/08/18 06:47:52;;;;;;;0.80;0.40;;;22.20;99.90;;;;;;4916281;29;20475;-73
2023/08/18 06:50:20;;;;;;;0.60;0.20;;;22.20;99.90;;;;;;4917507;29;20449;-74
2023/08/18 06:52:49;;;;;;;0.80;0.53;;;22.20;99.90;;;;;;4916107;29;20489;-73
2023/08/18 06:55:17;;;;;;;0.60;0.17;;;22.30;99.90;;;;;;4915869;29;20512;-74
2023/08/18 06:57:54;;;;;;;0.60;0.10;;;22.30;99.90;;;;;;4916076;29;20483;-74
2023/08/18 07:00:22;;;;;;;0.60;0.30;;;22.30;99.90;;;;;;4917497;29;20461;-74
2023/08/18 07:02:50;;;;;;;0.60;0.10;;;22.30;99.90;;;;;;4916699;29;20456;-73
2023/08/18 07:05:18;;;;;;;0.60;0.20;;;22.20;99.90;;;;;;4916215;29;20447;-73
2023/08/18 07:07:46;;;;;;;0.60;0.10;;;22.30;99.90;;;;;;4915382;29;20871;-75
2023/08/18 07:10:15;;;;;;;0.60;0.10;;;22.40;99.90;;;;;;4915603;29;20456;-74
2023/08/18 07:12:43;;;;;;;0.60;0.17;;;22.40;99.90;;;;;;4916571;29;20491;-72
2023/08/18 07:15:11;;;;;;;0.60;0.10;;;22.40;99.90;;;;;;4919772;29;20965;-74
2023/08/18 07:17:39;;;;;;;0.60;0.10;;;22.50;99.90;;;;;;4919825;29;20488;-73
2023/08/18 07:20:10;;;;;;;0.60;0.20;;;22.40;99.90;;;;;;4930655;29;20447;-75
2023/08/18 07:22:38;;;;;;;0.73;0.50;;;22.50;99.90;;;;;;4937599;29;20451;-74
2023/08/18 07:25:09;;;;;;;0.60;0.10;;;22.60;99.90;;;;;;4936893;29;20446;-72
2023/08/18 07:27:38;;;;;;;2.13;2.03;;;22.60;99.90;;;;;;4936580;29;20578;-72
2023/08/18 07:30:07;;;;;;;0.60;0.10;;;22.50;99.90;;;;;;4921105;29;20476;-73
2023/08/18 07:32:39;;;;;;;0.60;0.10;;;22.50;99.90;;;;;;4921296;29;21028;-75
2023/08/18 07:35:08;;;;;;;0.60;0.30;;;22.50;99.90;;;;;;4918970;29;20477;-74
2023/08/18 07:37:37;;;;;;;1.00;0.50;;;22.50;99.90;;;;;;4919745;29;20452;-74
2023/08/18 07:40:23;;;;;;;1.17;1.07;;;22.60;99.90;;;;;;4919741;29;20469;-74
2023/08/18 07:42:52;;;;;;;0.60;0.10;;;22.60;99.90;;;;;;4932673;29;20446;-75
2023/08/18 07:45:20;;;;;;;0.60;0.10;;;22.60;99.90;;;;;;4918563;29;20449;-72
2023/08/18 07:47:48;;;;;;;0.60;0.20;;;22.70;99.90;;;;;;4918465;29;20479;-74
2023/08/18 07:50:16;;;;;;;0.70;0.40;;;22.80;99.90;;;;;;4917765;29;20448;-73
2023/08/18 07:52:45;;;;;;;0.60;0.20;;;22.80;99.90;;;;;;4918375;29;20491;-73
2023/08/18 07:55:13;;;;;;;0.60;0.17;;;22.90;99.90;;;;;;4917609;29;20542;-73
2023/08/18 07:57:41;;;;;;;0.60;0.10;;;23.00;99.90;;;;;;4918598;29;20508;-73
2023/08/18 08:00:16;;;;;;;0.70;0.60;;;;;;;;;;4918398;29;20467;-74
2023/08/18 08:02:44;;;;;;;1.73;1.63;;;23.00;99.90;;;;;;4918027;29;20451;-71
2023/08/18 08:05:12;;;;;;;0.60;0.20;;;23.00;99.90;;;;;;4918298;29;20452;-72
2023/08/18 08:07:41;;;;;;;0.60;0.20;;;23.00;99.90;;;;;;4917513;29;20477;-72
2023/08/18 08:10:29;;;;;;;0.60;0.10;;;23.00;99.90;;;;;;4916151;29;20460;-72
2023/08/18 08:12:59;;;;;;;0.60;0.17;;;23.00;99.90;;;;;;4914881;29;21318;-75
2023/08/18 08:15:29;;;;;;;0.60;0.20;;;23.10;99.90;;;;;;4919329;29;20520;-72
2023/08/18 08:17:57;;;;;;;0.60;0.20;;;23.20;99.90;;;;;;4921436;29;20523;-71
2023/08/18 08:20:26;;;;;;;1.80;1.70;;;23.40;99.90;;;;;;4923195;29;20535;-72
2023/08/18 08:22:57;;;;;;;0.60;0.20;;;23.40;99.90;;;;;;4928524;29;20519;-71
2023/08/18 08:25:25;;;;;;;0.60;0.10;;;23.40;99.90;;;;;;4928141;29;20540;-72
2023/08/18 08:27:53;;;;;;;2.30;0.37;;;23.40;99.90;;;;;;4929320;29;20463;-73
2023/08/18 08:30:23;;;;;;;0.60;0.10;;;23.40;99.90;;;;;;4921840;29;20464;-70
2023/08/18 08:33:05;;;;;;;0.60;0.10;;;23.40;99.90;;;;;;4919292;29;20444;-73
2023/08/18 08:35:34;;;;;;;0.70;0.40;;;23.60;99.90;;;;;;4919269;29;20563;-70
2023/08/18 08:38:02;;;;;;;0.60;0.20;;;23.70;99.90;;;;;;4920075;29;20460;-73
2023/08/18 08:40:30;;;;;;;3.53;3.20;;;23.70;99.90;;;;;;4918859;29;20452;-72
2023/08/18 08:42:58;;;;;;;0.80;0.53;;;23.60;99.90;;;;;;4917221;29;20905;-71
2023/08/18 08:45:29;;;;;;;3.83;1.17;;;23.60;99.90;;;;;;4920623;29;20437;-74
2023/08/18 08:47:57;;;;;;;0.60;0.20;;;23.70;99.90;;;;;;4932015;29;20449;-72
2023/08/18 08:50:29;;;;;;;0.60;0.10;;;23.70;99.90;;;;;;4932701;29;20448;-73
2023/08/18 08:53:01;;;;;;;1.57;1.17;;;23.70;99.90;;;;;;4927663;29;20459;-73
2023/08/18 08:55:32;;;;;;;1.43;0.67;;;23.90;99.90;;;;;;4922565;29;20539;-72
2023/08/18 08:58:02;;;;;;;0.60;0.10;;;23.90;99.90;;;;;;4918231;29;20894;-73
2023/08/18 09:00:30;;;;;;;3.47;1.70;;;24.00;99.90;;;;;;4917057;29;21116;-72
2023/08/18 09:03:01;;;;;;;0.70;0.20;;;24.00;99.90;;;;;;4918425;29;20458;-72
2023/08/18 09:05:31;;;;;;;0.60;0.10;;;24.00;99.90;;;;;;4917928;29;20456;-73
2023/08/18 09:08:00;;;;;;;0.60;0.20;;;24.10;99.90;;;;;;4917939;29;20452;-73
2023/08/18 09:10:28;;;;;;;0.70;0.13;;;24.30;99.90;;;;;;4918568;29;20946;-72
2023/08/18 09:12:56;;;;;;;0.60;0.10;;;24.30;99.90;;;;;;4918713;29;20973;-72
2023/08/18 09:15:24;;;;;;;0.60;0.20;;;24.40;99.90;;;;;;4917114;29;20583;-73
2023/08/18 09:17:52;;;;;;;0.60;0.20;;;24.40;99.90;;;;;;4917102;29;20452;-73
2023/08/18 09:20:22;;;;;;;0.60;0.20;;;24.50;99.90;;;;;;4920065;29;20508;-76
2023/08/18 09:22:55;;;;;;;0.70;0.20;;;24.50;99.90;;;;;;4899053;29;21099;-74
2023/08/18 09:25:23;;;;;;;0.70;0.10;;;24.60;99.90;;;;;;4898196;29;21084;-75
2023/08/18 09:27:54;;;;;;;0.60;0.10;;;24.60;99.90;;;;;;4916122;29;20460;-74
2023/08/18 09:30:23;;;;;;;0.60;0.10;;;24.70;99.90;;;;;;4917467;29;21253;-77
2023/08/18 09:32:51;;;;;;;0.63;0.10;;;24.80;99.90;;;;;;4917723;29;20484;-72
2023/08/18 09:35:20;;;;;;;0.67;0.20;;;24.80;99.90;;;;;;4917283;29;20847;-73
2023/08/18 09:37:57;;;;;;;0.70;0.10;;;24.90;99.90;;;;;;4919305;29;20508;-74
2023/08/18 09:40:25;;;;;;;0.70;0.10;;;25.10;99.90;;;;;;4920016;29;20547;-73
2023/08/18 09:42:54;;;;;;;0.60;0.10;;;25.10;99.90;;;;;;4919840;29;20507;-74
2023/08/18 09:45:23;;;;;;;0.60;0.10;;;25.10;99.90;;;;;;4920111;29;20508;-72
2023/08/18 09:47:53;;;;;;;0.70;0.30;;;25.20;99.90;;;;;;4920193;29;20941;-71
2023/08/18 09:50:24;;;;;;;0.70;0.20;;;25.40;99.90;;;;;;4923953;29;20521;-74
2023/08/18 09:52:54;;;;;;;0.70;0.10;;;25.40;99.90;;;;;;4924146;29;20761;-70
2023/08/18 09:55:27;;;;;;;0.70;0.20;;;25.50;99.90;;;;;;4919221;29;20484;-72
2023/08/18 09:57:58;;;;;;;0.70;0.10;;;25.50;99.90;;;;;;4918212;29;20497;-70
2023/08/18 10:00:27;;;;;;;0.70;0.10;;;25.70;99.90;;;;;;4917190;29;20472;-73
2023/08/18 10:02:59;;;;;;;0.70;0.20;;;25.70;99.90;;;;;;4917223;29;20502;-71
2023/08/18 10:05:28;;;;;;;0.70;0.10;;;25.70;99.90;;;;;;4919337;29;20479;-73
2023/08/18 10:07:57;;;;;;;0.70;0.10;;;25.70;99.90;;;;;;4921938;29;20973;-73
2023/08/18 10:10:26;;;;;;;0.70;0.10;;;25.90;99.90;;;;;;4922066;29;21069;-75
2023/08/18 10:12:54;;;;;;;0.70;0.20;;;25.90;99.90;;;;;;4918829;29;20472;-73
2023/08/18 10:15:25;;;;;;;0.70;0.10;;;26.00;99.90;;;;;;4916795;29;20587;-74
2023/08/18 10:17:52;;;;;;;0.70;0.10;;;26.10;99.90;;;;;;4917169;29;20535;-75
2023/08/18 10:20:25;;;;;;;0.60;0.10;;;26.20;99.90;;;;;;4916633;29;20918;-74
2023/08/18 10:22:55;;;;;;;0.70;0.10;;;26.30;99.90;;;;;;4916938;29;20500;-73
2023/08/18 10:25:28;;;;;;;0.70;0.20;;;26.30;99.90;;;;;;4916838;29;20480;-73
2023/08/18 10:30:34;;;;;;;0.70;0.10;;;26.50;99.90;;;;;;4931613;29;20510;-73
2023/08/18 10:33:08;;;;;;;0.70;0.10;;;26.50;99.90;;;;;;4942152;29;20529;-74
2023/08/18 10:35:41;;;;;;;0.70;0.10;;;26.60;99.90;;;;;;4934799;28;20518;-73
2023/08/18 10:38:11;;;;;;;0.70;0.10;;;26.70;99.90;;;;;;4932995;29;20816;-73
2023/08/18 10:40:41;;;;;;;0.70;0.10;;;26.80;99.90;;;;;;4933193;29;20882;-75
2023/08/18 10:43:13;;;;;;;0.70;0.20;;;26.80;99.90;;;;;;4944446;29;20448;-71
2023/08/18 10:45:41;;;;;;;0.70;0.10;;;26.80;99.90;;;;;;4934152;28;20440;-74
2023/08/18 10:48:10;;;;;;;0.70;0.10;;;26.90;99.90;;;;;;4935015;29;20471;-72
2023/08/18 10:50:44;;;;;;;0.70;0.10;;;26.90;99.90;;;;;;4937582;29;20956;-73
2023/08/18 10:53:12;;;;;;;0.80;0.33;;;27.00;99.90;;;;;;4937445;29;20454;-73
2023/08/18 10:55:43;;;;;;;0.70;0.10;;;27.10;99.90;;;;;;4947769;29;20480;-73
2023/08/18 10:58:13;;;;;;;0.70;0.10;;;27.20;99.90;;;;;;4956095;28;21043;-71
2023/08/18 11:00:41;;;;;;;0.70;0.20;;;27.20;99.90;;;;;;4955961;28;20482;-72
2023/08/18 11:03:08;;;;;;;0.70;0.13;;;27.20;99.90;;;;;;4955947;28;20921;-72
2023/08/18 11:05:36;;;;;;;0.70;0.40;;;27.20;99.90;;;;;;4951840;28;20625;-72
2023/08/18 11:08:07;;;;;;;0.70;0.20;;;27.30;99.90;;;;;;4947387;28;20463;-74
2023/08/18 11:10:35;;;;;;;0.70;0.10;;;27.30;99.90;;;;;;4955873;28;20450;-74
2023/08/18 11:13:04;;;;;;;0.70;0.10;;;27.30;99.90;;;;;;4950037;28;20547;-75
2023/08/18 11:15:33;;;;;;;0.70;0.10;;;27.50;99.90;;;;;;4932134;29;20522;-74
2023/08/18 11:18:01;;;;;;;0.70;0.20;;;27.60;99.90;;;;;;4949843;29;20457;-74
2023/08/18 11:20:29;;;;;;;0.70;0.20;;;27.60;99.90;;;;;;4952151;28;20518;-75
2023/08/18 11:22:58;;;;;;;0.87;0.47;;;27.60;99.90;;;;;;4949732;29;21016;-72
2023/08/18 11:25:26;;;;;;;0.70;0.10;;;27.70;99.90;;;;;;4955836;28;20509;-75
2023/08/18 11:27:54;;;;;;;0.70;0.20;;;27.70;99.90;;;;;;4948417;28;20455;-75
2023/08/18 11:30:24;;;;;;;0.70;0.10;;;27.70;99.90;;;;;;4950064;28;20451;-72
2023/08/18 11:32:53;;;;;;;0.70;0.10;;;27.80;99.90;;;;;;4950706;28;20494;-71
2023/08/18 11:35:22;;;;;;;0.70;0.10;;;27.80;99.90;;;;;;4937190;29;20489;-73
2023/08/18 11:37:53;;;;;;;1.47;1.37;;;28.00;99.90;;;;;;4935276;29;20452;-75
2023/08/18 11:40:22;;;;;;;1.10;0.83;;;27.90;99.90;;;;;;4935726;29;20449;-74
2023/08/18 11:42:53;;;;;;;0.90;0.60;;;28.00;99.90;;;;;;4939957;29;21043;-75
2023/08/18 11:45:22;;;;;;;0.70;0.10;;;28.00;99.90;;;;;;4951199;29;20547;-76
2023/08/18 11:48:00;;;;;;;0.70;0.10;;;28.20;99.90;;;;;;4954771;28;20451;-74
2023/08/18 11:50:33;;;;;;;0.70;0.10;;;28.20;99.90;;;;;;4955904;28;20538;-76
2023/08/18 11:53:03;;;;;;;0.70;0.10;;;28.30;99.90;;;;;;4955350;28;20453;-75
2023/08/18 11:55:32;;;;;;;0.70;0.20;;;28.30;99.90;;;;;;4943140;29;20477;-76
2023/08/18 11:58:05;;;;;;;0.70;0.20;;;28.40;99.90;;;;;;4955105;28;20455;-76
2023/08/18 12:00:36;;;;;;;0.70;0.10;;;28.40;99.90;;;;;;4954790;28;20449;-75
2023/08/18 12:03:07;;;;;;;0.70;0.10;;;28.40;99.90;;;;;;4944858;28;20451;-74
2023/08/18 12:05:38;;;;;;;0.70;0.20;;;28.50;99.90;;;;;;4943716;29;20446;-75
2023/08/18 12:08:10;;;;;;;0.70;0.10;;;28.70;99.90;;;;;;4941070;29;20468;-76
2023/08/18 12:10:40;;;;;;;0.70;0.10;;;28.70;99.90;;;;;;4945861;28;20847;-75
2023/08/18 12:13:08;;;;;;;0.70;0.30;;;28.80;99.90;;;;;;4943909;28;20488;-73
2023/08/18 12:15:36;;;;;;;1.17;1.07;;;28.80;99.90;;;;;;4928303;29;20560;-75
2023/08/18 12:18:05;;;;;;;0.70;0.20;;;28.90;99.90;;;;;;4924917;29;20466;-74
2023/08/18 12:20:34;;;;;;;0.70;0.10;;;28.80;99.90;;;;;;4920592;29;20471;-74
2023/08/18 12:23:03;;;;;;;0.70;0.10;;;28.90;99.90;;;;;;4926760;29;20491;-70
2023/08/18 12:25:31;;;;;;;0.70;0.10;;;29.00;99.90;;;;;;4933563;29;20435;-71
2023/08/18 12:27:59;;;;;;;0.70;0.30;;;29.10;99.90;;;;;;4922403;29;20518;-72
2023/08/18 12:30:27;;;;;;;0.70;0.10;;;29.20;99.90;;;;;;4941030;29;20474;-73
2023/08/18 12:32:55;;;;;;;0.70;0.10;;;29.20;99.90;;;;;;4948064;29;20443;-73
2023/08/18 12:35:25;;;;;;;0.70;0.10;;;29.30;99.90;;;;;;4937902;28;20451;-73
2023/08/18 12:37:53;;;;;;;2.90;1.40;;;29.30;99.90;;;;;;4916331;29;20532;-72
2023/08/18 12:40:21;;;;;;;0.70;0.20;;;29.30;99.90;;;;;;4929238;29;20468;-74
2023/08/18 12:42:49;;;;;;;0.70;0.20;;;29.30;99.90;;;;;;4953779;29;20478;-73
2023/08/18 12:45:17;;;;;;;0.70;0.20;;;29.40;99.90;;;;;;4943871;28;20547;-73
2023/08/18 12:47:45;;;;;;;0.70;0.10;;;;;;;;;;4953965;29;20485;-73
2023/08/18 12:50:13;;;;;;;0.70;0.10;;;29.40;96.50;;;;;;4943731;28;20959;-73
2023/08/18 12:52:44;;;;;;;0.70;0.20;;;29.50;99.90;;;;;;4945330;29;20450;-72
2023/08/18 12:55:12;;;;;;;0.70;0.10;;;29.50;95.70;;;;;;4945069;28;21003;-71
2023/08/18 12:57:40;;;;;;;0.70;0.10;;;29.60;99.70;;;;;;4934125;29;20483;-73
2023/08/18 13:00:11;;;;;;;1.20;0.40;;;29.70;94.90;;;;;;4934704;29;20525;-71
2023/08/18 13:02:39;;;;;;;0.90;0.63;;;29.70;99.90;;;;;;4934521;29;20542;-72
2023/08/18 13:05:07;;;;;;;0.70;0.10;;;29.70;99.70;;;;;;4934330;29;20454;-72
2023/08/18 13:07:35;;;;;;;0.70;0.10;;;29.80;99.90;;;;;;4934891;29;20447;-73
2023/08/18 13:10:05;;;;;;;0.70;0.20;;;29.80;93.90;;;;;;4934459;29;20485;-73
2023/08/18 13:12:33;;;;;;;0.70;0.20;;;29.90;99.90;;;;;;4926964;29;20516;-73
2023/08/18 13:15:01;;;;;;;0.70;0.33;;;29.90;99.00;;;;;;4915785;29;20467;-73
2023/08/18 13:17:29;;;;;;;1.23;0.53;;;29.90;99.10;;;;;;4916501;29;20493;-74
2023/08/18 13:19:57;;;;;;;0.70;0.20;;;29.10;91.60;;;;;;4942064;29;20477;-73
2023/08/18 13:22:25;;;;;;;0.70;0.10;;;29.90;97.60;;;;;;4950843;29;20484;-74
2023/08/18 13:24:54;;;;;;;0.70;0.10;;;30.00;97.40;;;;;;4953339;28;20450;-75
2023/08/18 13:27:23;;;;;;;0.70;0.10;;;30.00;97.40;;;;;;4953515;28;20573;-72
2023/08/18 13:29:52;;;;;;;0.80;0.47;;;30.10;90.70;;;;;;4953948;28;20478;-73
2023/08/18 13:32:21;;;;;;;0.70;0.20;;;30.20;94.90;;;;;;4916589;28;20542;-71
2023/08/18 13:34:49;;;;;;;0.70;0.20;;;30.30;81.10;;;;;;4915536;29;20451;-71
2023/08/18 13:37:17;;;;;;;0.70;0.20;;;30.20;79.70;;;;;;4915683;29;20961;-73
2023/08/18 13:39:44;;;;;;;0.70;0.10;;;30.30;76.20;;;;;;4915107;29;20531;-73
2023/08/18 13:42:12;;;;;;;0.70;0.20;;;30.30;88.00;;;;;;4915058;29;20452;-72
2023/08/18 13:44:41;;;;;;;0.70;0.10;;;30.40;90.20;;;;;;4946601;29;20479;-73
2023/08/18 13:47:09;;;;;;;0.70;0.10;;;30.50;81.20;;;;;;4953701;28;20447;-71
2023/08/18 13:49:37;;;;;;;0.70;0.20;;;30.40;76.10;;;;;;4953101;28;20470;-74
2023/08/18 13:52:06;;;;;;;0.70;0.20;;;30.50;78.80;;;;;;4925648;28;20538;-72
2023/08/18 13:54:34;;;;;;;0.70;0.20;;;30.50;96.00;;;;;;4941822;29;20518;-72
2023/08/18 13:57:01;;;;;;;0.80;0.40;;;30.50;81.00;;;;;;4927721;29;20479;-74
2023/08/18 13:59:29;;;;;;;0.80;0.60;;;30.50;78.20;;;;;;4934006;29;20530;-74
2023/08/18 14:01:59;;;;;;;0.70;0.20;;;30.50;79.30;;;;;;4917495;29;20456;-72
2023/08/18 14:04:26;;;;;;;0.70;0.10;;;30.50;79.60;;;;;;4913421;29;20452;-74
2023/08/18 14:06:56;;;;;;;0.80;0.40;;;30.50;91.00;;;;;;4914084;29;20448;-73
2023/08/18 14:09:25;;;;;;;1.53;1.13;;;30.60;76.40;;;;;;4913035;29;20513;-73
2023/08/18 14:11:53;;;;;;;0.70;0.20;;;30.50;85.60;;;;;;4913515;29;20572;-71
2023/08/18 14:14:21;;;;;;;0.70;0.10;;;30.60;87.10;;;;;;4915285;29;20829;-73
2023/08/18 14:16:48;;;;;;;0.70;0.10;;;30.60;88.20;;;;;;4938384;29;20991;-71
2023/08/18 14:19:18;;;;;;;0.70;0.10;;;30.70;79.60;;;;;;4920329;28;20479;-71
2023/08/18 14:21:46;;;;;;;0.70;0.10;;;30.70;90.10;;;;;;4914757;29;20484;-71
2023/08/18 14:24:13;;;;;;;0.70;0.20;;;30.80;88.50;;;;;;4914316;29;20456;-71
2023/08/18 14:26:41;;;;;;;0.70;0.10;;;30.90;85.40;;;;;;4918205;29;20563;-73
2023/08/18 14:29:14;;;;;;;0.70;0.20;;;30.90;69.80;;;;;;4933478;29;20475;-72
2023/08/18 14:31:44;;;;;;;0.80;0.30;;;30.90;81.80;;;;;;4933967;29;20932;-72
2023/08/18 14:34:12;;;;;;;0.70;0.20;;;31.00;80.20;;;;;;4935781;29;20451;-72
2023/08/18 14:36:41;;;;;;;0.70;0.13;;;31.00;78.20;;;;;;4932147;29;20536;-72
2023/08/18 14:39:09;;;;;;;0.70;0.10;;;31.00;65.50;;;;;;4934997;29;20487;-72
2023/08/18 14:41:37;;;;;;;0.70;0.10;;;31.00;73.70;;;;;;4935003;29;20497;-72
2023/08/18 14:44:05;;;;;;;0.70;0.20;;;31.20;75.60;;;;;;4946009;29;20782;-73
2023/08/18 14:46:33;;;;;;;0.70;0.20;;;31.20;78.00;;;;;;4949150;28;20645;-73
2023/08/18 14:49:03;;;;;;;1.10;0.63;;;31.30;65.70;;;;;;4933687;29;20491;-72
2023/08/18 14:51:32;;;;;;;0.77;0.23;;;31.30;75.80;;;;;;4933694;29;20451;-71
2023/08/18 14:54:03;;;;;;;1.77;0.60;;;31.30;62.20;;;;;;4933992;29;20535;-74
2023/08/18 14:56:31;;;;;;;0.97;0.73;;;31.30;62.60;;;;;;4932326;29;20451;-73
2023/08/18 14:58:59;;;;;;;0.70;0.20;;;31.40;57.20;;;;;;4933443;29;20499;-73
2023/08/18 15:01:31;;;;;;;0.70;0.20;;;31.40;66.60;;;;;;4932982;29;20494;-72
2023/08/18 15:03:59;;;;;;;0.70;0.20;;;31.50;65.40;;;;;;4933772;29;20455;-72
2023/08/18 15:06:26;;;;;;;0.70;0.10;;;31.50;64.30;;;;;;4932774;29;20448;-72
2023/08/18 15:08:54;;;;;;;0.70;0.20;;;31.80;55.90;;;;;;4914917;29;20504;-72
2023/08/18 15:11:23;;;;;;;0.70;0.20;;;31.80;68.40;;;;;;4933853;29;20451;-71
2023/08/18 15:13:51;;;;;;;0.70;0.20;;;31.90;63.40;;;;;;4933682;29;20451;-73
2023/08/18 15:16:19;;;;;;;0.70;0.20;;;31.90;58.40;;;;;;4931137;29;21036;-71
2023/08/18 15:18:47;;;;;;;0.70;0.10;;;31.90;47.30;;;;;;4914315;29;20895;-72
2023/08/18 15:21:15;;;;;;;0.70;0.20;;;31.90;58.00;;;;;;4914812;29;20452;-72
2023/08/18 15:23:43;;;;;;;0.70;0.13;;;32.00;64.20;;;;;;4914211;29;20535;-72
2023/08/18 15:26:11;;;;;;;0.70;0.20;;;32.10;63.70;;;;;;4915447;29;20456;-72
2023/08/18 15:28:40;;;;;;;0.70;0.20;;;32.10;49.40;;;;;;4914254;29;20487;-73
2023/08/18 15:31:12;;;;;;;0.70;0.10;;;32.20;62.30;;;;;;4914291;29;20535;-73
2023/08/18 15:33:41;;;;;;;0.70;0.20;;;32.30;63.70;;;;;;4914537;29;20821;-72
2023/08/18 15:36:10;;;;;;;0.70;0.30;;;32.40;52.30;;;;;;4931051;29;20524;-72
2023/08/18 15:38:38;;;;;;;0.70;0.13;;;32.40;43.70;;;;;;4936876;29;20992;-72
2023/08/18 15:41:06;;;;;;;0.70;0.10;;;32.50;55.40;;;;;;4937091;29;20482;-72
2023/08/18 15:43:34;;;;;;;0.70;0.10;;;32.60;61.90;;;;;;4943969;29;20448;-75
2023/08/18 15:46:03;;;;;;;0.70;0.10;;;32.60;48.50;;;;;;4938977;28;20551;-75
2023/08/18 15:48:35;;;;;;;0.70;0.20;;;32.70;38.10;;;;;;4937349;29;20550;-76
2023/08/18 15:51:03;;;;;;;0.80;0.50;;;32.70;51.60;;;;;;4937224;29;20469;-76
2023/08/18 15:53:31;;;;;;;0.70;0.20;;;32.70;55.10;;;;;;4936889;29;20490;-74
2023/08/18 15:55:59;;;;;;;0.70;0.10;;;32.90;60.50;;;;;;4921275;29;20448;-77
2023/08/18 15:58:28;;;;;;;0.70;0.20;;;33.10;51.50;;;;;;4917812;29;20511;-77
2023/08/18 16:00:57;;;;;;;0.70;0.20;;;33.20;57.30;;;;;;4918024;29;20440;-73
2023/08/18 16:03:27;;;;;;;0.70;0.10;;;33.40;72.00;;;;;;4917578;29;20543;-75
2023/08/18 16:05:55;;;;;;;0.70;0.20;;;33.50;50.00;;;;;;4932192;29;20448;-76
2023/08/18 16:08:23;;;;;;;0.70;0.10;;;33.70;51.50;;;;;;4936509;29;20558;-73
2023/08/18 16:10:51;;;;;;;0.70;0.20;;;;;;;;;;4935603;29;20451;-73
2023/08/18 16:13:19;;;;;;;0.70;0.20;;;33.70;28.00;;;;;;4917507;29;20459;-74
2023/08/18 16:15:48;;;;;;;0.70;0.20;;;33.90;48.60;;;;;;4917897;29;20456;-76
2023/08/18 16:18:29;;;;;;;0.70;0.20;;;34.20;40.00;;;;;;4917079;29;20556;-74
2023/08/18 16:20:58;;;;;;;0.70;0.17;;;;;;;;;;4932246;29;20514;-76
2023/08/18 16:23:26;;;;;;;0.70;0.20;;;34.30;22.60;;;;;;4935992;29;20849;-73
2023/08/18 16:25:54;;;;;;;0.70;0.10;;;34.30;49.40;;;;;;4936581;29;20478;-75
2023/08/18 16:30:51;;;;;;;0.70;0.20;;;34.60;47.20;;;;;;4918603;29;21101;-75
2023/08/18 16:33:21;;;;;;;0.70;0.20;;;34.60;43.90;;;;;;4917842;29;20492;-76
2023/08/18 16:35:51;;;;;;;0.70;0.20;;;34.60;30.20;;;;;;4911109;29;20475;-76
2023/08/18 16:38:18;;;;;;;0.70;0.20;;;34.70;31.70;;;;;;4919075;29;20571;-76
2023/08/18 16:40:50;;;;;;;0.70;0.20;;;34.70;39.80;;;;;;4907250;29;20485;-76
2023/08/18 16:43:18;;;;;;;0.70;0.20;;;34.70;43.30;;;;;;4899735;29;20536;-75
2023/08/18 16:45:46;;;;;;;0.70;0.20;;;34.90;39.10;;;;;;4899869;29;20544;-75
2023/08/18 16:48:14;;;;;;;0.70;0.20;;;34.80;24.80;;;;;;4904643;29;20560;-75
2023/08/18 16:50:43;;;;;;;0.70;0.20;;;34.80;32.30;;;;;;4908151;29;20486;-77
2023/08/18 16:53:12;;;;;;;0.70;0.10;;;34.80;29.40;;;;;;4905644;29;20822;-75
2023/08/18 16:55:42;;;;;;;0.70;0.20;;;;;;;;;;4904959;29;20514;-75
2023/08/18 16:58:10;;;;;;;0.70;0.10;;;34.90;20.50;;;;;;4909982;29;20819;-74
2023/08/18 17:00:41;;;;;;;0.70;0.20;;;34.90;28.70;;;;;;4913352;29;20488;-75
2023/08/18 17:03:09;;;;;;;0.70;0.20;;;34.90;22.90;;;;;;4915755;29;21001;-75